sensor_id;sensor_type;location;lat;lon;timestamp;temperature;humidity
3402;DHT22;1714;49.756;8.610;2023-01-15T04:34:24;7.50;99.90
3402;DHT22;1714;49.756;8.610;2023-01-15T04:45:00;7.30;99.90
3402;DHT22;1714;49.756;8.610;2023-01-15T04:55:36;7.00;99.90
3402;DHT22;1714;49.756;8.610;2023-01-15T05:06:11;6.90;99.90
3402;DHT22;1714;49.756;8.610;2023-01-15T05:16:48;6.80;99.90
3402;DHT22;1714;49.756;8.610;2023-01-15T05:27:24;6.70;99.90
3402;DHT22;1714;49.756;8.610;2023-01-15T05:38:00;6.50;99.90
3402;DHT22;1714;49.756;8.610;2023-01-15T05:48:38;6.40;99.90
3402;DHT22;1714;49.756;8.610;2023-01-15T05:59:15;6.20;99.90
3402;DHT22;1714;49.756;8.610;2023-01-15T06:09:51;6.30;99.90
3402;DHT22;1714;49.756;8.610;2023-01-15T06:20:27;6.00;99.90
3402;DHT22;1714;49.756;8.610;2023-01-15T06:31:07;5.80;99.90
3402;DHT22;1714;49.756;8.610;2023-01-15T06:41:43;5.70;99.90
3402;DHT22;1714;49.756;8.610;2023-01-15T06:52:38;5.70;99.90
3402;DHT22;1714;49.756;8.610;2023-01-15T07:03:13;5.60;99.90
3402;DHT22;1714;49.756;8.610;2023-01-15T07:13:49;5.70;99.90
3402;DHT22;1714;49.756;8.610;2023-01-15T07:24:25;5.70;99.90
3402;DHT22;1714;49.756;8.610;2023-01-15T07:35:00;5.70;99.90
3402;DHT22;1714;49.756;8.610;2023-01-15T07:45:38;5.70;99.90
3402;DHT22;1714;49.756;8.610;2023-01-15T07:56:33;5.70;99.90
3402;DHT22;1714;49.756;8.610;2023-01-15T08:07:09;5.80;99.90
3402;DHT22;1714;49.756;8.610;2023-01-15T08:17:47;5.70;99.90
3402;DHT22;1714;49.756;8.610;2023-01-15T08:28:23;5.80;99.90
3402;DHT22;1714;49.756;8.610;2023-01-15T08:38:59;5.80;99.90
3402;DHT22;1714;49.756;8.610;2023-01-15T08:49:34;5.80;99.90
3402;DHT22;1714;49.756;8.610;2023-01-15T09:00:11;5.80;99.90
3402;DHT22;1714;49.756;8.610;2023-01-15T09:10:46;5.80;99.90
3402;DHT22;1714;49.756;8.610;2023-01-15T09:21:22;5.80;99.90
3402;DHT22;1714;49.756;8.610;2023-01-15T09:31:58;5.70;99.90
3402;DHT22;1714;49.756;8.610;2023-01-15T09:42:57;5.60;99.90
3402;DHT22;1714;49.756;8.610;2023-01-15T09:53:55;5.80;99.90
3402;DHT22;1714;49.756;8.610;2023-01-15T10:04:36;5.80;99.90
3402;DHT22;1714;49.756;8.610;2023-01-15T10:15:40;5.80;99.90
3402;DHT22;1714;49.756;8.610;2023-01-15T10:37:11;5.90;99.90
3402;DHT22;1714;49.756;8.610;2023-01-15T10:47:58;5.80;99.90
3402;DHT22;1714;49.756;8.610;2023-01-15T10:58:52;5.60;89.90
3402;DHT22;1714;49.756;8.610;2023-01-15T11:09:30;5.50;85.90
3402;DHT22;1714;49.756;8.610;2023-01-15T11:20:16;5.40;84.20
3402;DHT22;1714;49.756;8.610;2023-01-15T11:30:53;5.40;72.60
3402;DHT22;1714;49.756;8.610;2023-01-15T11:41:32;5.30;71.90
3402;DHT22;1714;49.756;8.610;2023-01-15T11:52:26;5.00;73.10
3402;DHT22;1714;49.756;8.610;2023-01-15T12:03:10;4.80;75.50
3402;DHT22;1714;49.756;8.610;2023-01-15T12:14:10;5.20;69.20
3402;DHT22;1714;49.756;8.610;2023-01-15T12:35:36;5.30;75.50
3402;DHT22;1714;49.756;8.610;2023-01-15T12:46:16;5.50;71.60
3402;DHT22;1714;49.756;8.610;2023-01-15T12:57:07;5.60;74.40
3402;DHT22;1714;49.756;8.610;2023-01-15T13:08:04;5.60;71.30
3402;DHT22;1714;49.756;8.610;2023-01-15T13:30:13;6.10;65.70
3402;DHT22;1714;49.756;8.610;2023-01-15T13:40:52;6.40;57.50
3402;DHT22;1714;49.756;8.610;2023-01-15T13:51:30;6.60;51.70
3402;DHT22;1714;49.756;8.610;2023-01-15T14:02:24;7.00;47.20
3402;DHT22;1714;49.756;8.610;2023-01-15T14:13:23;6.70;43.30
3402;DHT22;1714;49.756;8.610;2023-01-15T14:24:32;7.40;37.30
3402;DHT22;1714;49.756;8.610;2023-01-15T14:35:18;7.20;34.80
3402;DHT22;1714;49.756;8.610;2023-01-15T14:45:55;7.30;35.10
3402;DHT22;1714;49.756;8.610;2023-01-15T14:56:34;7.10;32.60
3402;DHT22;1714;49.756;8.610;2023-01-15T15:07:17;7.10;35.90
3402;DHT22;1714;49.756;8.610;2023-01-15T15:17:58;7.10;33.30
3402;DHT22;1714;49.756;8.610;2023-01-15T15:28:35;6.80;36.50
3402;DHT22;1714;49.756;8.610;2023-01-15T15:39:28;6.70;37.20
3402;DHT22;1714;49.756;8.610;2023-01-15T15:50:29;6.60;39.70
3402;DHT22;1714;49.756;8.610;2023-01-15T16:01:09;6.60;39.90
3402;DHT22;1714;49.756;8.610;2023-01-15T16:11:48;6.60;42.30
3402;DHT22;1714;49.756;8.610;2023-01-15T16:22:25;6.50;42.60
3402;DHT22;1714;49.756;8.610;2023-01-15T16:33:04;6.40;46.60
3402;DHT22;1714;49.756;8.610;2023-01-15T16:44:00;6.30;52.70
3402;DHT22;1714;49.756;8.610;2023-01-15T17:05:18;5.70;85.80
3402;DHT22;1714;49.756;8.610;2023-01-15T17:16:03;5.30;98.40
3402;DHT22;1714;49.756;8.610;2023-01-15T17:26:39;5.20;99.90
3402;DHT22;1714;49.756;8.610;2023-01-15T17:37:15;5.10;99.90
3402;DHT22;1714;49.756;8.610;2023-01-15T17:47:51;5.20;99.90
3402;DHT22;1714;49.756;8.610;2023-01-15T17:58:26;5.40;99.90
3402;DHT22;1714;49.756;8.610;2023-01-15T18:09:22;5.50;90.20
3402;DHT22;1714;49.756;8.610;2023-01-15T18:19:58;5.50;92.50
3402;DHT22;1714;49.756;8.610;2023-01-15T18:30:33;5.50;82.20
3402;DHT22;1714;49.756;8.610;2023-01-15T18:41:14;5.30;89.40
3402;DHT22;1714;49.756;8.610;2023-01-15T18:52:11;5.30;84.10
3402;DHT22;1714;49.756;8.610;2023-01-15T19:03:05;5.50;74.80
3402;DHT22;1714;49.756;8.610;2023-01-15T19:13:41;5.60;67.20
3402;DHT22;1714;49.756;8.610;2023-01-15T19:24:16;5.60;62.20
3402;DHT22;1714;49.756;8.610;2023-01-15T19:34:52;5.60;61.00
3402;DHT22;1714;49.756;8.610;2023-01-15T19:45:28;5.60;62.00
3402;DHT22;1714;49.756;8.610;2023-01-15T19:56:22;5.60;62.20
3402;DHT22;1714;49.756;8.610;2023-01-15T20:06:58;5.50;62.30
3402;DHT22;1714;49.756;8.610;2023-01-15T20:17:34;5.40;61.50
3402;DHT22;1714;49.756;8.610;2023-01-15T20:28:10;5.20;64.20
3402;DHT22;1714;49.756;8.610;2023-01-15T20:38:47;5.30;61.50
3402;DHT22;1714;49.756;8.610;2023-01-15T20:49:23;5.40;56.80
3402;DHT22;1714;49.756;8.610;2023-01-15T20:59:59;5.30;61.50
3402;DHT22;1714;49.756;8.610;2023-01-15T21:10:34;5.20;60.40
3402;DHT22;1714;49.756;8.610;2023-01-15T21:21:13;5.30;57.30
3402;DHT22;1714;49.756;8.610;2023-01-15T21:31:49;5.40;55.60
3402;DHT22;1714;49.756;8.610;2023-01-15T21:42:25;5.40;54.50
3402;DHT22;1714;49.756;8.610;2023-01-15T21:53:19;5.30;54.40
3402;DHT22;1714;49.756;8.610;2023-01-15T22:03:55;5.40;52.20
3402;DHT22;1714;49.756;8.610;2023-01-15T22:14:31;5.40;50.80
3402;DHT22;1714;49.756;8.610;2023-01-15T22:25:07;5.40;51.40
